sensor_id;sensor_type;location;lat;lon;timestamp;temperature;humidity
3954;DHT22;1991;48.682;9.030;2023-02-07T00:00:43;-0.90;99.90
3954;DHT22;1991;48.682;9.030;2023-02-07T00:03:09;-0.80;99.90
3954;DHT22;1991;48.682;9.030;2023-02-07T00:05:35;-0.80;99.90
3954;DHT22;1991;48.682;9.030;2023-02-07T00:08:04;-0.90;99.90
3954;DHT22;1991;48.682;9.030;2023-02-07T00:10:30;-0.90;99.90
3954;DHT22;1991;48.682;9.030;2023-02-07T00:12:56;-1.00;99.90
3954;DHT22;1991;48.682;9.030;2023-02-07T00:15:22;-1.00;99.90
3954;DHT22;1991;48.682;9.030;2023-02-07T00:17:47;-1.00;99.90
3954;DHT22;1991;48.682;9.030;2023-02-07T00:20:13;-1.00;99.90
3954;DHT22;1991;48.682;9.030;2023-02-07T00:22:39;-1.00;99.90
3954;DHT22;1991;48.682;9.030;2023-02-07T00:25:05;-1.00;99.90
3954;DHT22;1991;48.682;9.030;2023-02-07T00:27:30;-1.10;99.90
3954;DHT22;1991;48.682;9.030;2023-02-07T00:29:56;-1.20;99.90
3954;DHT22;1991;48.682;9.030;2023-02-07T00:32:22;-1.20;99.90
3954;DHT22;1991;48.682;9.030;2023-02-07T00:34:47;-1.30;99.90
3954;DHT22;1991;48.682;9.030;2023-02-07T00:37:15;-1.30;99.90
3954;DHT22;1991;48.682;9.030;2023-02-07T00:39:41;-1.60;99.90
3954;DHT22;1991;48.682;9.030;2023-02-07T00:42:06;-1.70;99.90
3954;DHT22;1991;48.682;9.030;2023-02-07T00:44:32;-1.80;99.90
3954;DHT22;1991;48.682;9.030;2023-02-07T00:46:58;-1.80;99.90
3954;DHT22;1991;48.682;9.030;2023-02-07T00:49:24;-1.90;99.90
3954;DHT22;1991;48.682;9.030;2023-02-07T00:51:49;-1.90;99.90
3954;DHT22;1991;48.682;9.030;2023-02-07T00:54:15;-1.90;99.90
3954;DHT22;1991;48.682;9.030;2023-02-07T00:56:41;-2.00;99.90
3954;DHT22;1991;48.682;9.030;2023-02-07T00:59:06;-2.10;99.90
3954;DHT22;1991;48.682;9.030;2023-02-07T01:01:32;-2.20;99.90
3954;DHT22;1991;48.682;9.030;2023-02-07T01:03:58;-2.30;99.90
3954;DHT22;1991;48.682;9.030;2023-02-07T01:06:24;-2.40;99.90
3954;DHT22;1991;48.682;9.030;2023-02-07T01:08:49;-2.40;99.90
3954;DHT22;1991;48.682;9.030;2023-02-07T01:11:15;-2.40;99.90
3954;DHT22;1991;48.682;9.030;2023-02-07T01:13:43;-2.50;99.90
3954;DHT22;1991;48.682;9.030;2023-02-07T01:16:31;-2.50;99.90
3954;DHT22;1991;48.682;9.030;2023-02-07T01:18:59;-2.50;99.90
3954;DHT22;1991;48.682;9.030;2023-02-07T01:21:25;-2.60;99.90
3954;DHT22;1991;48.682;9.030;2023-02-07T01:23:52;-2.50;99.90
3954;DHT22;1991;48.682;9.030;2023-02-07T01:26:22;-2.50;99.90
3954;DHT22;1991;48.682;9.030;2023-02-07T01:28:47;-2.40;99.90
3954;DHT22;1991;48.682;9.030;2023-02-07T01:31:13;-2.30;99.90
3954;DHT22;1991;48.682;9.030;2023-02-07T01:33:39;-2.30;99.90
3954;DHT22;1991;48.682;9.030;2023-02-07T01:36:10;-2.20;99.90
3954;DHT22;1991;48.682;9.030;2023-02-07T01:38:36;-2.20;99.90
3954;DHT22;1991;48.682;9.030;2023-02-07T01:41:02;-2.30;99.90
3954;DHT22;1991;48.682;9.030;2023-02-07T01:43:28;-2.30;99.90
3954;DHT22;1991;48.682;9.030;2023-02-07T01:45:54;-2.50;99.90
3954;DHT22;1991;48.682;9.030;2023-02-07T01:48:28;-2.50;99.90
3954;DHT22;1991;48.682;9.030;2023-02-07T01:50:57;-2.50;99.90
3954;DHT22;1991;48.682;9.030;2023-02-07T01:53:26;-2.60;99.90
3954;DHT22;1991;48.682;9.030;2023-02-07T01:55:57;-2.50;99.90
3954;DHT22;1991;48.682;9.030;2023-02-07T01:58:23;-2.40;99.90
3954;DHT22;1991;48.682;9.030;2023-02-07T02:00:50;-2.20;99.90
3954;DHT22;1991;48.682;9.030;2023-02-07T02:03:16;-2.10;99.90
3954;DHT22;1991;48.682;9.030;2023-02-07T02:05:42;-2.00;99.90
3954;DHT22;1991;48.682;9.030;2023-02-07T02:08:10;-1.90;99.90
3954;DHT22;1991;48.682;9.030;2023-02-07T02:13:38;-1.70;99.90
3954;DHT22;1991;48.682;9.030;2023-02-07T02:16:47;-1.60;99.90
3954;DHT22;1991;48.682;9.030;2023-02-07T02:39:07;-1.90;99.90
3954;DHT22;1991;48.682;9.030;2023-02-07T02:41:46;-2.00;99.90
3954;DHT22;1991;48.682;9.030;2023-02-07T02:44:29;-2.20;99.90
3954;DHT22;1991;48.682;9.030;2023-02-07T02:46:57;-2.30;99.90
3954;DHT22;1991;48.682;9.030;2023-02-07T02:49:25;-2.40;99.90
3954;DHT22;1991;48.682;9.030;2023-02-07T02:51:51;-2.60;99.90
3954;DHT22;1991;48.682;9.030;2023-02-07T02:54:31;-2.60;99.90
3954;DHT22;1991;48.682;9.030;2023-02-07T03:11:15;-2.90;99.90
3954;DHT22;1991;48.682;9.030;2023-02-07T03:16:42;-2.90;99.90
3954;DHT22;1991;48.682;9.030;2023-02-07T03:19:23;-3.00;99.90
3954;DHT22;1991;48.682;9.030;2023-02-07T03:21:55;-2.80;99.90
3954;DHT22;1991;48.682;9.030;2023-02-07T03:24:27;-2.90;99.90
3954;DHT22;1991;48.682;9.030;2023-02-07T03:26:57;-2.90;99.90
3954;DHT22;1991;48.682;9.030;2023-02-07T03:29:27;-3.00;99.90
3954;DHT22;1991;48.682;9.030;2023-02-07T03:31:55;-3.00;99.90
3954;DHT22;1991;48.682;9.030;2023-02-07T03:34:36;-3.00;99.90
3954;DHT22;1991;48.682;9.030;2023-02-07T03:37:11;-3.00;99.90
3954;DHT22;1991;48.682;9.030;2023-02-07T03:39:40;-3.00;99.90
3954;DHT22;1991;48.682;9.030;2023-02-07T03:42:20;-3.10;99.90
3954;DHT22;1991;48.682;9.030;2023-02-07T03:44:48;-3.20;99.90
3954;DHT22;1991;48.682;9.030;2023-02-07T03:47:18;-3.20;99.90
3954;DHT22;1991;48.682;9.030;2023-02-07T03:49:44;-3.20;99.90
3954;DHT22;1991;48.682;9.030;2023-02-07T03:52:10;-3.20;99.90
3954;DHT22;1991;48.682;9.030;2023-02-07T03:54:36;-3.30;99.90
3954;DHT22;1991;48.682;9.030;2023-02-07T03:57:01;-3.50;99.90
3954;DHT22;1991;48.682;9.030;2023-02-07T03:59:27;-3.60;99.90
3954;DHT22;1991;48.682;9.030;2023-02-07T04:01:52;-3.60;99.90
3954;DHT22;1991;48.682;9.030;2023-02-07T04:04:18;-3.60;99.90
3954;DHT22;1991;48.682;9.030;2023-02-07T04:06:44;-3.70;99.90
3954;DHT22;1991;48.682;9.030;2023-02-07T04:09:10;-3.70;99.90
3954;DHT22;1991;48.682;9.030;2023-02-07T04:11:35;-3.80;99.90
3954;DHT22;1991;48.682;9.030;2023-02-07T04:14:01;-3.90;99.90
3954;DHT22;1991;48.682;9.030;2023-02-07T04:16:26;-3.80;99.90
3954;DHT22;1991;48.682;9.030;2023-02-07T04:18:52;-3.90;99.90
3954;DHT22;1991;48.682;9.030;2023-02-07T04:21:18;-3.90;99.90
3954;DHT22;1991;48.682;9.030;2023-02-07T04:23:43;-3.90;99.90
3954;DHT22;1991;48.682;9.030;2023-02-07T04:26:09;-3.90;99.90
3954;DHT22;1991;48.682;9.030;2023-02-07T04:28:34;-4.00;99.90
3954;DHT22;1991;48.682;9.030;2023-02-07T04:31:00;-4.00;99.90
3954;DHT22;1991;48.682;9.030;2023-02-07T04:33:25;-4.00;99.90
3954;DHT22;1991;48.682;9.030;2023-02-07T04:35:56;-4.00;99.90
3954;DHT22;1991;48.682;9.030;2023-02-07T04:38:22;-4.00;99.90
3954;DHT22;1991;48.682;9.030;2023-02-07T04:40:48;-4.10;99.90
3954;DHT22;1991;48.682;9.030;2023-02-07T04:43:13;-4.10;99.90
3954;DHT22;1991;48.682;9.030;2023-02-07T04:45:39;-4.20;99.90
3954;DHT22;1991;48.682;9.030;2023-02-07T04:48:05;-4.30;99.90
3954;DHT22;1991;48.682;9.030;2023-02-07T04:50:30;-4.30;99.90
3954;DHT22;1991;48.682;9.030;2023-02-07T04:52:56;-4.30;99.90
3954;DHT22;1991;48.682;9.030;2023-02-07T04:55:21;-4.30;99.90
3954;DHT22;1991;48.682;9.030;2023-02-07T04:57:47;-4.40;99.90
3954;DHT22;1991;48.682;9.030;2023-02-07T05:00:14;-4.40;99.90
3954;DHT22;1991;48.682;9.030;2023-02-07T05:02:40;-4.40;99.90
3954;DHT22;1991;48.682;9.030;2023-02-07T05:05:06;-4.50;99.90
3954;DHT22;1991;48.682;9.030;2023-02-07T05:07:32;-4.50;99.90
3954;DHT22;1991;48.682;9.030;2023-02-07T05:09:57;-4.60;99.90
3954;DHT22;1991;48.682;9.030;2023-02-07T05:12:23;-4.60;99.90
3954;DHT22;1991;48.682;9.030;2023-02-07T05:14:48;-4.60;99.90
3954;DHT22;1991;48.682;9.030;2023-02-07T05:17:14;-4.50;99.90
3954;DHT22;1991;48.682;9.030;2023-02-07T05:19:40;-4.50;99.90
3954;DHT22;1991;48.682;9.030;2023-02-07T05:22:05;-4.50;99.90
3954;DHT22;1991;48.682;9.030;2023-02-07T05:24:31;-4.60;99.90
3954;DHT22;1991;48.682;9.030;2023-02-07T05:26:56;-4.60;99.90
3954;DHT22;1991;48.682;9.030;2023-02-07T05:29:22;-4.60;99.90
3954;DHT22;1991;48.682;9.030;2023-02-07T05:31:47;-4.60;99.90
3954;DHT22;1991;48.682;9.030;2023-02-07T05:34:31;-4.60;99.90
3954;DHT22;1991;48.682;9.030;2023-02-07T05:36:57;-4.70;99.90
3954;DHT22;1991;48.682;9.030;2023-02-07T05:39:23;-4.70;99.90
3954;DHT22;1991;48.682;9.030;2023-02-07T05:41:48;-4.80;99.90
3954;DHT22;1991;48.682;9.030;2023-02-07T05:44:14;-4.80;99.90
3954;DHT22;1991;48.682;9.030;2023-02-07T05:46:39;-4.80;99.90
3954;DHT22;1991;48.682;9.030;2023-02-07T05:49:05;-4.80;99.90
3954;DHT22;1991;48.682;9.030;2023-02-07T05:51:30;-4.70;99.90
3954;DHT22;1991;48.682;9.030;2023-02-07T05:53:56;-4.70;99.90
3954;DHT22;1991;48.682;9.030;2023-02-07T05:56:22;-4.60;99.90
3954;DHT22;1991;48.682;9.030;2023-02-07T05:58:47;-4.60;99.90
3954;DHT22;1991;48.682;9.030;2023-02-07T06:01:13;-4.60;99.90
3954;DHT22;1991;48.682;9.030;2023-02-07T06:03:38;-4.60;99.90
3954;DHT22;1991;48.682;9.030;2023-02-07T06:06:04;-4.60;99.90
3954;DHT22;1991;48.682;9.030;2023-02-07T06:08:30;-4.70;99.90
3954;DHT22;1991;48.682;9.030;2023-02-07T06:10:55;-4.80;99.90
3954;DHT22;1991;48.682;9.030;2023-02-07T06:13:21;-4.90;99.90
3954;DHT22;1991;48.682;9.030;2023-02-07T06:15:47;-4.90;99.90
3954;DHT22;1991;48.682;9.030;2023-02-07T06:18:12;-4.90;99.90
3954;DHT22;1991;48.682;9.030;2023-02-07T06:20:38;-4.90;99.90
3954;DHT22;1991;48.682;9.030;2023-02-07T06:23:04;-4.90;99.90
3954;DHT22;1991;48.682;9.030;2023-02-07T06:25:29;-4.90;99.90
3954;DHT22;1991;48.682;9.030;2023-02-07T06:27:55;-4.90;99.90
3954;DHT22;1991;48.682;9.030;2023-02-07T06:30:21;-4.90;99.90
3954;DHT22;1991;48.682;9.030;2023-02-07T06:32:47;-4.90;99.90
3954;DHT22;1991;48.682;9.030;2023-02-07T06:35:12;-4.90;99.90
3954;DHT22;1991;48.682;9.030;2023-02-07T06:37:38;-4.90;99.90
3954;DHT22;1991;48.682;9.030;2023-02-07T06:40:04;-5.00;99.90
3954;DHT22;1991;48.682;9.030;2023-02-07T06:42:30;-5.00;99.90
3954;DHT22;1991;48.682;9.030;2023-02-07T06:44:56;-5.00;99.90
3954;DHT22;1991;48.682;9.030;2023-02-07T06:47:21;-5.00;99.90
3954;DHT22;1991;48.682;9.030;2023-02-07T06:49:47;-5.10;99.90
3954;DHT22;1991;48.682;9.030;2023-02-07T06:52:13;-5.10;99.90
3954;DHT22;1991;48.682;9.030;2023-02-07T06:54:38;-5.10;99.90
3954;DHT22;1991;48.682;9.030;2023-02-07T06:57:04;-5.10;99.90
3954;DHT22;1991;48.682;9.030;2023-02-07T06:59:30;-5.10;99.90
3954;DHT22;1991;48.682;9.030;2023-02-07T07:01:55;-5.00;99.90
3954;DHT22;1991;48.682;9.030;2023-02-07T07:04:21;-5.00;99.90
3954;DHT22;1991;48.682;9.030;2023-02-07T07:06:46;-5.00;99.90
3954;DHT22;1991;48.682;9.030;2023-02-07T07:09:12;-4.90;99.90
3954;DHT22;1991;48.682;9.030;2023-02-07T07:11:38;-4.90;99.90
3954;DHT22;1991;48.682;9.030;2023-02-07T07:14:10;-4.90;99.90
3954;DHT22;1991;48.682;9.030;2023-02-07T07:16:36;-4.80;99.90
3954;DHT22;1991;48.682;9.030;2023-02-07T07:19:02;-4.80;99.90
3954;DHT22;1991;48.682;9.030;2023-02-07T07:21:28;-4.80;99.90
3954;DHT22;1991;48.682;9.030;2023-02-07T07:23:54;-4.70;99.90
3954;DHT22;1991;48.682;9.030;2023-02-07T07:26:19;-4.60;99.90
3954;DHT22;1991;48.682;9.030;2023-02-07T07:28:45;-4.40;99.90
3954;DHT22;1991;48.682;9.030;2023-02-07T07:31:11;-4.30;99.90
3954;DHT22;1991;48.682;9.030;2023-02-07T07:33:37;-4.20;99.90
3954;DHT22;1991;48.682;9.030;2023-02-07T07:36:03;-4.10;99.90
3954;DHT22;1991;48.682;9.030;2023-02-07T07:38:30;-3.90;99.90
3954;DHT22;1991;48.682;9.030;2023-02-07T07:40:56;-3.70;99.90
3954;DHT22;1991;48.682;9.030;2023-02-07T07:43:21;-3.50;99.90
3954;DHT22;1991;48.682;9.030;2023-02-07T07:45:52;-3.30;99.90
3954;DHT22;1991;48.682;9.030;2023-02-07T07:48:18;-3.10;99.90
3954;DHT22;1991;48.682;9.030;2023-02-07T07:50:43;-2.90;99.90
3954;DHT22;1991;48.682;9.030;2023-02-07T07:53:09;-2.70;99.90
3954;DHT22;1991;48.682;9.030;2023-02-07T07:55:34;-2.50;99.90
3954;DHT22;1991;48.682;9.030;2023-02-07T07:58:00;-2.30;99.90
3954;DHT22;1991;48.682;9.030;2023-02-07T08:00:26;-2.10;99.90
3954;DHT22;1991;48.682;9.030;2023-02-07T08:02:51;-1.80;99.90
3954;DHT22;1991;48.682;9.030;2023-02-07T08:05:17;-1.60;99.90
3954;DHT22;1991;48.682;9.030;2023-02-07T08:07:42;-1.40;99.90
3954;DHT22;1991;48.682;9.030;2023-02-07T08:10:08;-1.20;99.90
3954;DHT22;1991;48.682;9.030;2023-02-07T08:12:34;-1.10;99.90
3954;DHT22;1991;48.682;9.030;2023-02-07T08:15:00;-0.80;99.90
3954;DHT22;1991;48.682;9.030;2023-02-07T08:17:25;-0.60;99.90
3954;DHT22;1991;48.682;9.030;2023-02-07T08:19:51;-0.30;99.90
3954;DHT22;1991;48.682;9.030;2023-02-07T08:22:16;0.00;99.90
3954;DHT22;1991;48.682;9.030;2023-02-07T08:24:42;0.20;99.90
3954;DHT22;1991;48.682;9.030;2023-02-07T08:27:08;0.40;99.90
3954;DHT22;1991;48.682;9.030;2023-02-07T08:29:33;0.50;99.90
3954;DHT22;1991;48.682;9.030;2023-02-07T08:31:59;0.70;98.70
3954;DHT22;1991;48.682;9.030;2023-02-07T08:34:24;0.90;97.40
3954;DHT22;1991;48.682;9.030;2023-02-07T08:36:51;1.30;94.80
3954;DHT22;1991;48.682;9.030;2023-02-07T08:39:17;1.60;93.30
3954;DHT22;1991;48.682;9.030;2023-02-07T08:41:43;1.80;92.00
3954;DHT22;1991;48.682;9.030;2023-02-07T08:44:08;2.10;91.00
3954;DHT22;1991;48.682;9.030;2023-02-07T08:46:34;2.50;88.90
3954;DHT22;1991;48.682;9.030;2023-02-07T08:48:59;3.10;85.10
3954;DHT22;1991;48.682;9.030;2023-02-07T08:51:25;3.80;82.60
3954;DHT22;1991;48.682;9.030;2023-02-07T08:53:52;4.90;75.80
3954;DHT22;1991;48.682;9.030;2023-02-07T08:56:18;7.70;70.00
3954;DHT22;1991;48.682;9.030;2023-02-07T08:58:43;11.20;59.60
3954;DHT22;1991;48.682;9.030;2023-02-07T09:01:10;13.80;50.50
3954;DHT22;1991;48.682;9.030;2023-02-07T09:03:37;15.60;44.00
3954;DHT22;1991;48.682;9.030;2023-02-07T09:06:03;17.20;39.60
3954;DHT22;1991;48.682;9.030;2023-02-07T09:08:28;18.80;36.60
3954;DHT22;1991;48.682;9.030;2023-02-07T09:10:54;20.00;34.90
3954;DHT22;1991;48.682;9.030;2023-02-07T09:13:20;20.70;32.30
3954;DHT22;1991;48.682;9.030;2023-02-07T09:15:53;22.10;31.60
3954;DHT22;1991;48.682;9.030;2023-02-07T09:18:19;22.50;30.30
3954;DHT22;1991;48.682;9.030;2023-02-07T09:20:45;23.60;29.00
3954;DHT22;1991;48.682;9.030;2023-02-07T09:23:10;24.40;27.90
3954;DHT22;1991;48.682;9.030;2023-02-07T09:25:43;25.20;27.30
3954;DHT22;1991;48.682;9.030;2023-02-07T09:28:09;26.30;27.20
3954;DHT22;1991;48.682;9.030;2023-02-07T09:30:35;27.50;26.30
3954;DHT22;1991;48.682;9.030;2023-02-07T09:33:00;27.50;25.50
3954;DHT22;1991;48.682;9.030;2023-02-07T09:35:26;28.00;25.50
3954;DHT22;1991;48.682;9.030;2023-02-07T09:37:53;28.50;25.00
3954;DHT22;1991;48.682;9.030;2023-02-07T09:40:19;29.30;24.90
3954;DHT22;1991;48.682;9.030;2023-02-07T09:42:54;29.30;24.30
3954;DHT22;1991;48.682;9.030;2023-02-07T09:45:24;29.00;23.80
3954;DHT22;1991;48.682;9.030;2023-02-07T09:47:57;30.00;24.00
3954;DHT22;1991;48.682;9.030;2023-02-07T09:50:28;30.30;23.70
3954;DHT22;1991;48.682;9.030;2023-02-07T09:58:11;31.80;23.10
3954;DHT22;1991;48.682;9.030;2023-02-07T10:00:39;32.30;23.20
3954;DHT22;1991;48.682;9.030;2023-02-07T10:03:21;32.70;23.00
3954;DHT22;1991;48.682;9.030;2023-02-07T10:08:24;32.80;22.80
3954;DHT22;1991;48.682;9.030;2023-02-07T10:13:28;32.50;22.80
3954;DHT22;1991;48.682;9.030;2023-02-07T10:19:06;33.10;22.00
3954;DHT22;1991;48.682;9.030;2023-02-07T10:21:58;33.30;22.30
3954;DHT22;1991;48.682;9.030;2023-02-07T10:24:36;33.60;21.90
3954;DHT22;1991;48.682;9.030;2023-02-07T10:27:12;34.30;22.00
3954;DHT22;1991;48.682;9.030;2023-02-07T10:29:48;34.70;21.90
3954;DHT22;1991;48.682;9.030;2023-02-07T10:34:49;35.20;21.90
3954;DHT22;1991;48.682;9.030;2023-02-07T10:37:23;35.10;21.50
3954;DHT22;1991;48.682;9.030;2023-02-07T10:42:22;35.20;21.30
3954;DHT22;1991;48.682;9.030;2023-02-07T10:44:48;35.10;21.30
3954;DHT22;1991;48.682;9.030;2023-02-07T10:47:17;35.40;21.70
3954;DHT22;1991;48.682;9.030;2023-02-07T10:49:46;36.10;21.30
3954;DHT22;1991;48.682;9.030;2023-02-07T10:55:00;35.90;21.60
3954;DHT22;1991;48.682;9.030;2023-02-07T10:57:28;36.00;20.90
3954;DHT22;1991;48.682;9.030;2023-02-07T11:00:27;37.10;21.20
3954;DHT22;1991;48.682;9.030;2023-02-07T11:02:54;36.80;21.10
3954;DHT22;1991;48.682;9.030;2023-02-07T11:08:01;38.20;21.10
3954;DHT22;1991;48.682;9.030;2023-02-07T11:10:39;38.00;20.80
3954;DHT22;1991;48.682;9.030;2023-02-07T11:13:13;37.90;20.80
3954;DHT22;1991;48.682;9.030;2023-02-07T11:15:49;37.40;20.40
3954;DHT22;1991;48.682;9.030;2023-02-07T11:18:36;37.80;20.40
3954;DHT22;1991;48.682;9.030;2023-02-07T11:21:18;37.90;20.70
3954;DHT22;1991;48.682;9.030;2023-02-07T11:23:46;38.60;20.30
3954;DHT22;1991;48.682;9.030;2023-02-07T11:26:14;38.00;20.40
3954;DHT22;1991;48.682;9.030;2023-02-07T11:28:40;38.10;20.10
3954;DHT22;1991;48.682;9.030;2023-02-07T11:31:11;37.20;20.70
3954;DHT22;1991;48.682;9.030;2023-02-07T11:33:39;37.90;20.60
3954;DHT22;1991;48.682;9.030;2023-02-07T11:36:26;37.50;20.10
3954;DHT22;1991;48.682;9.030;2023-02-07T11:38:57;37.90;20.20
3954;DHT22;1991;48.682;9.030;2023-02-07T11:41:29;38.50;20.30
3954;DHT22;1991;48.682;9.030;2023-02-07T11:43:58;37.60;20.00
3954;DHT22;1991;48.682;9.030;2023-02-07T11:46:37;38.00;19.90
3954;DHT22;1991;48.682;9.030;2023-02-07T11:49:05;38.00;19.80
3954;DHT22;1991;48.682;9.030;2023-02-07T11:51:33;38.30;20.70
3954;DHT22;1991;48.682;9.030;2023-02-07T11:54:04;39.00;20.60
3954;DHT22;1991;48.682;9.030;2023-02-07T11:56:38;38.70;20.30
3954;DHT22;1991;48.682;9.030;2023-02-07T11:59:24;37.90;19.90
3954;DHT22;1991;48.682;9.030;2023-02-07T12:01:54;38.30;20.10
3954;DHT22;1991;48.682;9.030;2023-02-07T12:04:35;38.80;20.00
3954;DHT22;1991;48.682;9.030;2023-02-07T12:09:42;37.70;19.50
3954;DHT22;1991;48.682;9.030;2023-02-07T12:12:18;37.30;20.00
3954;DHT22;1991;48.682;9.030;2023-02-07T12:14:55;37.20;19.70
3954;DHT22;1991;48.682;9.030;2023-02-07T12:17:36;36.90;19.70
3954;DHT22;1991;48.682;9.030;2023-02-07T12:20:06;37.30;20.00
3954;DHT22;1991;48.682;9.030;2023-02-07T12:22:41;38.00;20.30
3954;DHT22;1991;48.682;9.030;2023-02-07T12:25:22;37.40;19.10
3954;DHT22;1991;48.682;9.030;2023-02-07T12:27:51;37.00;19.10
3954;DHT22;1991;48.682;9.030;2023-02-07T12:30:35;36.90;19.60
3954;DHT22;1991;48.682;9.030;2023-02-07T12:33:14;37.30;19.10
3954;DHT22;1991;48.682;9.030;2023-02-07T12:35:59;35.60;18.40
3954;DHT22;1991;48.682;9.030;2023-02-07T12:55:30;36.00;19.50
3954;DHT22;1991;48.682;9.030;2023-02-07T13:01:06;35.80;19.20
3954;DHT22;1991;48.682;9.030;2023-02-07T13:09:20;36.10;19.00
3954;DHT22;1991;48.682;9.030;2023-02-07T13:17:27;36.60;18.80
3954;DHT22;1991;48.682;9.030;2023-02-07T13:22:48;36.80;18.90
3954;DHT22;1991;48.682;9.030;2023-02-07T13:25:26;35.30;18.90
3954;DHT22;1991;48.682;9.030;2023-02-07T13:27:55;34.00;18.80
3954;DHT22;1991;48.682;9.030;2023-02-07T13:30:23;34.30;19.60
3954;DHT22;1991;48.682;9.030;2023-02-07T13:32:50;34.70;18.90
3954;DHT22;1991;48.682;9.030;2023-02-07T13:35:25;33.80;19.00
3954;DHT22;1991;48.682;9.030;2023-02-07T13:38:22;33.60;19.00
3954;DHT22;1991;48.682;9.030;2023-02-07T13:41:02;33.50;18.90
3954;DHT22;1991;48.682;9.030;2023-02-07T13:44:02;34.00;18.90
3954;DHT22;1991;48.682;9.030;2023-02-07T13:47:07;34.00;18.90
3954;DHT22;1991;48.682;9.030;2023-02-07T13:55:23;34.00;19.10
3954;DHT22;1991;48.682;9.030;2023-02-07T13:57:51;33.40;18.90
3954;DHT22;1991;48.682;9.030;2023-02-07T14:00:57;33.20;19.50
3954;DHT22;1991;48.682;9.030;2023-02-07T14:03:33;32.70;20.00
3954;DHT22;1991;48.682;9.030;2023-02-07T14:08:40;33.00;19.80
3954;DHT22;1991;48.682;9.030;2023-02-07T14:14:05;30.90;19.90
3954;DHT22;1991;48.682;9.030;2023-02-07T14:16:47;29.90;19.80
3954;DHT22;1991;48.682;9.030;2023-02-07T14:19:13;29.40;19.60
3954;DHT22;1991;48.682;9.030;2023-02-07T14:21:42;28.30;20.20
3954;DHT22;1991;48.682;9.030;2023-02-07T14:31:53;25.40;20.50
3954;DHT22;1991;48.682;9.030;2023-02-07T14:34:21;25.30;20.50
3954;DHT22;1991;48.682;9.030;2023-02-07T14:36:49;24.80;20.30
3954;DHT22;1991;48.682;9.030;2023-02-07T14:41:47;24.40;21.20
3954;DHT22;1991;48.682;9.030;2023-02-07T14:44:28;24.00;21.10
3954;DHT22;1991;48.682;9.030;2023-02-07T14:46:58;23.50;21.30
3954;DHT22;1991;48.682;9.030;2023-02-07T14:49:37;23.10;21.20
3954;DHT22;1991;48.682;9.030;2023-02-07T14:52:20;22.10;21.70
3954;DHT22;1991;48.682;9.030;2023-02-07T14:54:54;22.50;21.70
3954;DHT22;1991;48.682;9.030;2023-02-07T14:57:43;22.40;21.90
3954;DHT22;1991;48.682;9.030;2023-02-07T15:02:42;21.70;22.00
3954;DHT22;1991;48.682;9.030;2023-02-07T15:07:45;19.70;22.80
3954;DHT22;1991;48.682;9.030;2023-02-07T15:10:27;19.10;23.00
3954;DHT22;1991;48.682;9.030;2023-02-07T15:12:54;19.30;25.00
3954;DHT22;1991;48.682;9.030;2023-02-07T15:15:28;19.50;24.30
3954;DHT22;1991;48.682;9.030;2023-02-07T15:17:56;19.80;24.40
3954;DHT22;1991;48.682;9.030;2023-02-07T15:20:30;19.00;23.30
3954;DHT22;1991;48.682;9.030;2023-02-07T15:22:58;17.80;24.10
3954;DHT22;1991;48.682;9.030;2023-02-07T15:25:25;16.00;24.60
3954;DHT22;1991;48.682;9.030;2023-02-07T15:28:05;14.50;25.50
3954;DHT22;1991;48.682;9.030;2023-02-07T15:30:32;13.40;26.60
3954;DHT22;1991;48.682;9.030;2023-02-07T15:32:58;13.40;27.20
3954;DHT22;1991;48.682;9.030;2023-02-07T15:35:27;13.70;27.40
3954;DHT22;1991;48.682;9.030;2023-02-07T15:37:53;14.10;27.10
3954;DHT22;1991;48.682;9.030;2023-02-07T15:40:23;14.60;26.90
3954;DHT22;1991;48.682;9.030;2023-02-07T15:42:56;15.00;26.20
3954;DHT22;1991;48.682;9.030;2023-02-07T15:45:24;15.00;25.50
3954;DHT22;1991;48.682;9.030;2023-02-07T15:48:13;14.80;25.00
3954;DHT22;1991;48.682;9.030;2023-02-07T15:50:39;14.20;24.80
3954;DHT22;1991;48.682;9.030;2023-02-07T15:53:06;13.20;25.10
3954;DHT22;1991;48.682;9.030;2023-02-07T15:55:41;12.00;25.60
3954;DHT22;1991;48.682;9.030;2023-02-07T15:58:37;10.50;26.70
3954;DHT22;1991;48.682;9.030;2023-02-07T16:01:13;9.20;28.40
3954;DHT22;1991;48.682;9.030;2023-02-07T16:03:44;8.00;29.50
3954;DHT22;1991;48.682;9.030;2023-02-07T16:06:27;7.10;30.60
3954;DHT22;1991;48.682;9.030;2023-02-07T16:08:56;6.30;31.10
3954;DHT22;1991;48.682;9.030;2023-02-07T16:14:17;5.20;33.90
3954;DHT22;1991;48.682;9.030;2023-02-07T16:16:46;4.80;34.60
3954;DHT22;1991;48.682;9.030;2023-02-07T16:21:44;4.00;38.40
3954;DHT22;1991;48.682;9.030;2023-02-07T16:26:36;3.50;38.50
3954;DHT22;1991;48.682;9.030;2023-02-07T16:29:07;3.20;39.20
3954;DHT22;1991;48.682;9.030;2023-02-07T16:31:33;3.00;40.00
3954;DHT22;1991;48.682;9.030;2023-02-07T16:33:59;2.90;41.00
3954;DHT22;1991;48.682;9.030;2023-02-07T16:36:25;2.70;42.70
3954;DHT22;1991;48.682;9.030;2023-02-07T16:38:51;2.50;43.10
3954;DHT22;1991;48.682;9.030;2023-02-07T16:43:47;2.20;43.30
3954;DHT22;1991;48.682;9.030;2023-02-07T16:46:12;2.00;45.00
3954;DHT22;1991;48.682;9.030;2023-02-07T16:48:38;1.90;45.50
3954;DHT22;1991;48.682;9.030;2023-02-07T16:51:03;1.80;46.50
3954;DHT22;1991;48.682;9.030;2023-02-07T16:53:29;1.70;46.10
3954;DHT22;1991;48.682;9.030;2023-02-07T16:55:56;1.60;46.80
3954;DHT22;1991;48.682;9.030;2023-02-07T16:58:27;1.50;47.70
3954;DHT22;1991;48.682;9.030;2023-02-07T17:00:54;1.40;48.20
3954;DHT22;1991;48.682;9.030;2023-02-07T17:03:21;1.30;48.70
3954;DHT22;1991;48.682;9.030;2023-02-07T17:05:47;1.20;49.10
3954;DHT22;1991;48.682;9.030;2023-02-07T17:08:15;1.10;49.50
3954;DHT22;1991;48.682;9.030;2023-02-07T17:10:45;1.00;50.00
3954;DHT22;1991;48.682;9.030;2023-02-07T17:13:12;1.00;50.30
3954;DHT22;1991;48.682;9.030;2023-02-07T17:15:38;1.00;50.00
3954;DHT22;1991;48.682;9.030;2023-02-07T17:18:03;1.00;50.40
3954;DHT22;1991;48.682;9.030;2023-02-07T17:20:31;0.90;50.60
3954;DHT22;1991;48.682;9.030;2023-02-07T17:22:57;0.90;50.70
3954;DHT22;1991;48.682;9.030;2023-02-07T17:25:24;0.80;51.00
3954;DHT22;1991;48.682;9.030;2023-02-07T17:27:51;0.70;51.70
3954;DHT22;1991;48.682;9.030;2023-02-07T17:30:25;0.60;51.90
3954;DHT22;1991;48.682;9.030;2023-02-07T17:32:51;0.60;52.50
3954;DHT22;1991;48.682;9.030;2023-02-07T17:35:17;0.50;52.50
3954;DHT22;1991;48.682;9.030;2023-02-07T17:37:43;0.50;52.80
3954;DHT22;1991;48.682;9.030;2023-02-07T17:42:47;0.40;53.60
3954;DHT22;1991;48.682;9.030;2023-02-07T17:45:12;0.40;53.80
3954;DHT22;1991;48.682;9.030;2023-02-07T17:47:38;0.30;54.30
3954;DHT22;1991;48.682;9.030;2023-02-07T17:50:04;0.20;55.30
3954;DHT22;1991;48.682;9.030;2023-02-07T17:52:29;0.10;55.00
3954;DHT22;1991;48.682;9.030;2023-02-07T17:54:55;0.10;55.50
3954;DHT22;1991;48.682;9.030;2023-02-07T17:57:21;0.30;55.50
3954;DHT22;1991;48.682;9.030;2023-02-07T17:59:46;0.20;55.60
3954;DHT22;1991;48.682;9.030;2023-02-07T18:02:12;0.20;56.30
3954;DHT22;1991;48.682;9.030;2023-02-07T18:04:37;0.10;56.40
3954;DHT22;1991;48.682;9.030;2023-02-07T18:07:03;0.10;56.60
3954;DHT22;1991;48.682;9.030;2023-02-07T18:09:28;0.10;56.80
3954;DHT22;1991;48.682;9.030;2023-02-07T18:11:54;0.00;57.20
3954;DHT22;1991;48.682;9.030;2023-02-07T18:14:20;-0.10;57.50
3954;DHT22;1991;48.682;9.030;2023-02-07T18:16:45;-0.20;58.30
3954;DHT22;1991;48.682;9.030;2023-02-07T18:19:15;-0.20;59.10
3954;DHT22;1991;48.682;9.030;2023-02-07T18:21:41;-0.30;59.40
3954;DHT22;1991;48.682;9.030;2023-02-07T18:24:07;-0.40;59.80
3954;DHT22;1991;48.682;9.030;2023-02-07T18:26:33;-0.40;60.50
3954;DHT22;1991;48.682;9.030;2023-02-07T18:28:58;-0.40;61.10
3954;DHT22;1991;48.682;9.030;2023-02-07T18:31:25;-0.40;61.80
3954;DHT22;1991;48.682;9.030;2023-02-07T18:33:51;-0.50;62.20
3954;DHT22;1991;48.682;9.030;2023-02-07T18:36:18;-0.50;62.90